createdAt,value
2023-04-10T00:00:45.921Z,3.85
2023-04-10T00:03:19.653Z,3.78
2023-04-10T00:05:50.172Z,3.78
2023-04-10T00:08:20.869Z,3.70
2023-04-10T00:10:51.615Z,3.56
2023-04-10T00:13:22.020Z,3.54
2023-04-10T00:15:52.429Z,3.43
2023-04-10T00:18:25.776Z,3.39
2023-04-10T00:20:56.440Z,3.31
2023-04-10T00:23:26.943Z,3.32
2023-04-10T00:25:57.255Z,3.25
2023-04-10T00:28:27.829Z,3.15
2023-04-10T00:30:58.475Z,3.10
2023-04-10T00:33:31.526Z,3.03
2023-04-10T00:36:01.925Z,2.90
2023-04-10T00:38:32.386Z,2.96
2023-04-10T00:41:02.757Z,2.91
2023-04-10T00:43:33.939Z,2.90
2023-04-10T00:46:04.535Z,2.84
2023-04-10T00:48:37.821Z,2.79
2023-04-10T00:51:09.515Z,2.80
2023-04-10T00:53:40.267Z,2.74
2023-04-10T00:56:11.033Z,2.74
2023-04-10T00:58:41.615Z,2.64
2023-04-10T01:01:11.944Z,2.62
2023-04-10T01:03:45.967Z,2.64
2023-04-10T01:06:20.296Z,2.66
2023-04-10T01:08:56.462Z,2.61
2023-04-10T01:11:32.142Z,2.62
2023-04-10T01:14:08.304Z,2.55
2023-04-10T01:16:39.814Z,2.51
2023-04-10T01:19:18.047Z,2.67
2023-04-10T01:21:49.062Z,2.77
2023-04-10T01:24:27.346Z,2.60
2023-04-10T01:27:08.788Z,2.56
2023-04-10T01:29:44.846Z,2.51
2023-04-10T01:32:16.686Z,2.52
2023-04-10T01:34:48.370Z,2.47
2023-04-10T01:37:19.797Z,2.37
2023-04-10T01:39:53.055Z,2.29
2023-04-10T01:42:25.155Z,2.22
2023-04-10T01:44:58.968Z,2.22
2023-04-10T01:47:30.411Z,2.15
2023-04-10T01:50:02.070Z,2.14
2023-04-10T01:52:33.435Z,2.05
2023-04-10T01:55:12.074Z,1.92
2023-04-10T01:57:49.139Z,1.89
2023-04-10T02:00:23.040Z,1.84
2023-04-10T02:02:54.380Z,1.74
2023-04-10T02:05:27.452Z,1.69
2023-04-10T02:07:59.719Z,1.64
2023-04-10T02:10:32.745Z,1.56
2023-04-10T02:13:04.695Z,1.56
2023-04-10T02:15:39.355Z,1.58
2023-04-10T02:18:10.433Z,1.62
2023-04-10T02:20:40.839Z,1.70
2023-04-10T02:23:12.175Z,1.67
2023-04-10T02:25:42.318Z,1.70
2023-04-10T02:28:12.285Z,1.85
2023-04-10T02:30:45.670Z,2.05
2023-04-10T02:33:16.527Z,2.05
2023-04-10T02:35:46.797Z,2.03
2023-04-10T02:38:17.481Z,2.04
2023-04-10T02:40:47.772Z,2.06
2023-04-10T02:43:20.074Z,2.07
2023-04-10T02:45:53.810Z,2.12
2023-04-10T02:48:28.674Z,2.05
2023-04-10T02:51:03.273Z,1.97
2023-04-10T02:53:33.572Z,1.97
2023-04-10T02:56:06.939Z,1.94
2023-04-10T02:58:37.468Z,1.90
2023-04-10T03:01:11.658Z,1.85
2023-04-10T03:03:44.349Z,1.84
2023-04-10T03:06:16.329Z,1.79
2023-04-10T03:08:49.016Z,1.82
2023-04-10T03:11:19.250Z,1.92
2023-04-10T03:13:49.695Z,1.85
2023-04-10T03:16:22.430Z,1.77
2023-04-10T03:18:52.740Z,1.71
2023-04-10T03:21:22.776Z,1.64
2023-04-10T03:23:53.100Z,1.54
2023-04-10T03:26:24.215Z,1.44
2023-04-10T03:28:55.039Z,1.39
2023-04-10T03:31:27.795Z,1.47
2023-04-10T03:34:01.006Z,1.35
2023-04-10T03:36:32.049Z,1.37
2023-04-10T03:39:02.003Z,1.38
2023-04-10T03:41:33.101Z,1.45
2023-04-10T03:44:04.088Z,1.43
2023-04-10T03:46:37.137Z,1.33
2023-04-10T03:49:07.360Z,1.37
2023-04-10T03:51:37.789Z,1.36
2023-04-10T03:54:07.778Z,1.42
2023-04-10T03:56:38.404Z,1.46
2023-04-10T03:59:08.513Z,1.51
2023-04-10T04:01:46.014Z,1.60
2023-04-10T04:04:16.487Z,1.50
2023-04-10T04:06:59.283Z,1.67
2023-04-10T04:09:34.113Z,1.69
2023-04-10T04:12:23.526Z,1.59
2023-04-10T04:15:03.272Z,1.67
2023-04-10T04:17:54.797Z,1.64
2023-04-10T04:20:39.686Z,1.59
2023-04-10T04:23:33.165Z,1.58
2023-04-10T04:26:16.515Z,1.55
2023-04-10T04:28:57.455Z,1.48
2023-04-10T04:31:47.931Z,1.46
2023-04-10T04:34:33.030Z,1.40
2023-04-10T04:37:35.724Z,1.34
2023-04-10T04:40:36.590Z,1.23
2023-04-10T04:43:32.841Z,1.24
2023-04-10T04:46:18.890Z,1.27
2023-04-10T04:49:04.051Z,1.19
2023-04-10T04:51:49.954Z,1.18
2023-04-10T04:54:45.282Z,1.24
2023-04-10T04:57:34.489Z,1.32
2023-04-10T05:00:23.560Z,1.29
2023-04-10T05:02:56.368Z,1.41
2023-04-10T05:05:39.733Z,1.50
2023-04-10T05:08:17.982Z,1.63
2023-04-10T05:11:03.155Z,1.75
2023-04-10T05:13:45.128Z,1.94
2023-04-10T05:16:35.464Z,2.05
2023-04-10T05:19:18.736Z,2.19
2023-04-10T05:22:06.512Z,2.39
2023-04-10T05:24:58.122Z,2.65
2023-04-10T05:27:33.425Z,2.88
2023-04-10T05:30:29.492Z,3.19
2023-04-10T05:33:22.486Z,3.54
2023-04-10T05:36:12.268Z,3.95
2023-04-10T05:38:56.892Z,4.50
2023-04-10T05:41:42.648Z,5.18
2023-04-10T05:44:31.654Z,6.02
2023-04-10T05:47:24.529Z,6.83
2023-04-10T05:50:18.129Z,7.30
2023-04-10T05:53:16.129Z,7.75
2023-04-10T05:56:19.443Z,8.28
2023-04-10T05:59:10.532Z,8.96
2023-04-10T06:02:03.927Z,9.67
2023-04-10T06:04:34.137Z,10.33
2023-04-10T06:07:04.889Z,10.83
2023-04-10T06:09:36.196Z,10.96
2023-04-10T06:12:09.442Z,10.81
2023-04-10T06:14:44.139Z,10.66
2023-04-10T06:17:15.262Z,10.58
2023-04-10T06:19:45.953Z,10.57
2023-04-10T06:22:16.103Z,10.55
2023-04-10T06:24:47.671Z,10.34
2023-04-10T06:27:18.633Z,10.47
2023-04-10T06:29:51.871Z,10.38
2023-04-10T06:32:25.518Z,10.49
2023-04-10T06:34:56.105Z,10.73
2023-04-10T06:37:31.494Z,10.60
2023-04-10T06:40:07.453Z,10.50
2023-04-10T06:42:38.255Z,10.57
2023-04-10T06:45:33.759Z,11.02
2023-04-10T06:48:03.858Z,11.31
2023-04-10T06:50:34.114Z,12.11
2023-04-10T06:53:04.723Z,12.72
2023-04-10T06:55:34.668Z,13.25
2023-04-10T06:58:04.704Z,13.33
2023-04-10T07:00:37.573Z,13.28
2023-04-10T07:03:07.896Z,13.30
2023-04-10T07:05:39.497Z,13.48
2023-04-10T07:08:11.056Z,13.18
2023-04-10T07:10:41.130Z,12.96
2023-04-10T07:13:11.305Z,13.33
2023-04-10T07:15:44.206Z,13.73
2023-04-10T07:18:14.267Z,13.95
2023-04-10T07:20:44.685Z,14.74
2023-04-10T07:23:14.852Z,14.62
2023-04-10T07:25:46.212Z,14.21
2023-04-10T07:28:16.624Z,14.25
2023-04-10T07:30:49.424Z,14.82
2023-04-10T07:33:19.688Z,15.16
2023-04-10T07:35:50.335Z,14.73
2023-04-10T07:38:21.600Z,14.84
2023-04-10T07:40:51.589Z,14.97
2023-04-10T07:43:21.755Z,15.48
2023-04-10T07:45:54.729Z,15.76
2023-04-10T07:48:25.108Z,16.27
2023-04-10T07:50:56.090Z,16.64
2023-04-10T07:53:26.556Z,17.11
2023-04-10T07:55:57.021Z,18.43
2023-04-10T07:58:27.180Z,19.03
2023-04-10T08:00:59.902Z,20.30
2023-04-10T08:03:30.009Z,21.09
2023-04-10T08:06:00.396Z,21.68
2023-04-10T08:08:30.523Z,20.72
2023-04-10T08:11:01.046Z,20.86
2023-04-10T08:13:31.131Z,20.97
2023-04-10T08:16:04.066Z,19.97
2023-04-10T08:18:34.210Z,19.79
2023-04-10T08:21:04.563Z,20.46
2023-04-10T08:23:34.998Z,20.37
2023-04-10T08:26:05.699Z,20.10
2023-04-10T08:28:37.255Z,20.40
2023-04-10T08:31:10.508Z,21.54
2023-04-10T08:33:40.493Z,20.29
2023-04-10T08:36:12.915Z,20.05
2023-04-10T08:38:43.128Z,19.68
2023-04-10T08:41:14.132Z,19.73
2023-04-10T08:43:46.631Z,19.05
2023-04-10T08:46:20.355Z,18.70
2023-04-10T08:49:00.712Z,18.54
2023-04-10T08:51:37.626Z,19.25
2023-04-10T08:54:11.226Z,19.15
2023-04-10T08:56:44.858Z,18.86
2023-04-10T08:59:16.531Z,19.53
2023-04-10T09:01:56.472Z,19.52
2023-04-10T09:04:27.869Z,19.86
2023-04-10T09:07:01.507Z,20.45
2023-04-10T09:09:33.610Z,20.05
2023-04-10T09:12:09.566Z,20.08
2023-04-10T09:14:44.100Z,20.19
2023-04-10T09:17:32.213Z,20.99
2023-04-10T09:20:02.431Z,20.69
2023-04-10T09:22:34.349Z,20.27
2023-04-10T09:25:07.678Z,20.27
2023-04-10T09:27:40.343Z,21.05
2023-04-10T09:30:11.892Z,21.11
2023-04-10T09:32:46.832Z,20.92
2023-04-10T09:35:18.672Z,21.23
2023-04-10T09:37:49.123Z,20.72
2023-04-10T09:40:27.260Z,20.85
2023-04-10T09:42:58.825Z,21.62
2023-04-10T09:45:29.233Z,21.82
2023-04-10T09:48:10.069Z,21.73
2023-04-10T09:50:41.312Z,21.74
2023-04-10T09:53:12.477Z,21.83
2023-04-10T09:55:43.372Z,21.79
2023-04-10T09:58:14.409Z,21.98
2023-04-10T10:00:45.803Z,22.67
2023-04-10T10:03:21.361Z,22.39
2023-04-10T10:05:52.914Z,22.39
2023-04-10T10:08:24.338Z,22.89
2023-04-10T10:10:57.701Z,23.28
2023-04-10T10:13:32.446Z,22.48
2023-04-10T10:16:12.722Z,22.84
2023-04-10T10:18:48.398Z,24.14
2023-04-10T10:21:24.672Z,25.02
2023-04-10T10:23:56.833Z,24.99
2023-04-10T10:26:27.305Z,24.81
2023-04-10T10:28:59.545Z,24.48
2023-04-10T10:31:33.457Z,24.50
2023-04-10T10:34:09.731Z,24.46
2023-04-10T10:36:41.166Z,23.82
2023-04-10T10:39:29.995Z,24.31
2023-04-10T10:42:09.026Z,23.86
2023-04-10T10:44:47.253Z,23.86
2023-04-10T10:47:20.868Z,24.12
2023-04-10T10:50:01.895Z,24.30
2023-04-10T10:52:49.896Z,24.53
2023-04-10T10:55:37.999Z,24.65
2023-04-10T10:58:09.620Z,24.29
2023-04-10T11:01:12.683Z,23.49
2023-04-10T11:03:45.275Z,23.30
2023-04-10T11:06:20.184Z,22.17
2023-04-10T11:08:54.092Z,21.46
2023-04-10T11:11:25.970Z,21.86
2023-04-10T11:14:21.893Z,22.05
2023-04-10T11:16:52.077Z,21.45
2023-04-10T11:19:25.479Z,20.89
2023-04-10T11:22:10.808Z,21.02
2023-04-10T11:25:10.849Z,21.37
2023-04-10T11:27:49.904Z,21.62
2023-04-10T11:30:34.067Z,22.58
2023-04-10T11:33:06.088Z,23.00
2023-04-10T11:35:36.758Z,23.28
2023-04-10T11:38:17.640Z,23.19
2023-04-10T11:41:04.125Z,23.84
2023-04-10T11:43:35.360Z,24.77
2023-04-10T11:46:09.289Z,24.62
2023-04-10T11:48:40.482Z,24.68
2023-04-10T11:51:15.378Z,25.39
2023-04-10T11:53:47.936Z,25.23
2023-04-10T11:56:19.757Z,25.95
2023-04-10T11:58:55.313Z,26.55
2023-04-10T12:01:25.893Z,24.25
2023-04-10T12:03:58.267Z,24.91
2023-04-10T12:06:30.148Z,24.78
2023-04-10T12:09:16.205Z,25.24
2023-04-10T12:11:53.485Z,26.10
2023-04-10T12:14:24.579Z,25.66
2023-04-10T12:16:55.231Z,25.27
2023-04-10T12:19:25.304Z,24.99
2023-04-10T12:21:55.630Z,25.82
2023-04-10T12:24:53.570Z,25.25
2023-04-10T12:27:27.052Z,25.53
2023-04-10T12:29:59.025Z,24.89
2023-04-10T12:32:30.325Z,23.42
2023-04-10T12:35:03.732Z,22.74
2023-04-10T12:37:52.410Z,21.84
2023-04-10T12:40:25.128Z,21.60
2023-04-10T12:42:55.463Z,21.17
2023-04-10T12:45:25.540Z,21.54
2023-04-10T12:47:56.563Z,21.24
2023-04-10T12:50:28.176Z,20.89
2023-04-10T12:53:06.900Z,21.07
2023-04-10T12:55:39.717Z,21.48
2023-04-10T12:58:20.350Z,21.55
2023-04-10T13:00:50.642Z,21.78
2023-04-10T13:03:21.259Z,21.72
2023-04-10T13:05:52.222Z,22.30
2023-04-10T13:08:22.442Z,22.43
2023-04-10T13:10:55.257Z,22.80
2023-04-10T13:13:25.254Z,22.73
2023-04-10T13:15:55.764Z,22.88
2023-04-10T13:18:25.786Z,23.46
2023-04-10T13:20:56.007Z,23.93
2023-04-10T13:23:26.387Z,23.51
2023-04-10T13:25:59.314Z,23.77
2023-04-10T13:28:29.419Z,23.69
2023-04-10T13:30:59.388Z,23.91
2023-04-10T13:33:29.360Z,23.93
2023-04-10T13:35:59.410Z,24.16
2023-04-10T13:38:29.777Z,24.16
2023-04-10T13:41:02.379Z,24.45
2023-04-10T13:43:32.592Z,24.44
2023-04-10T13:46:02.686Z,24.68
2023-04-10T13:48:40.713Z,24.74
2023-04-10T13:51:12.523Z,24.92
2023-04-10T13:53:42.578Z,24.93
2023-04-10T13:56:15.246Z,24.66
2023-04-10T13:58:45.508Z,24.16
2023-04-10T14:01:15.554Z,24.27
2023-04-10T14:03:46.148Z,23.70
2023-04-10T14:06:16.684Z,24.44
2023-04-10T14:08:46.797Z,24.63
2023-04-10T14:11:19.452Z,23.73
2023-04-10T14:13:49.408Z,23.70
2023-04-10T14:16:19.965Z,23.94
2023-04-10T14:18:49.951Z,24.28
2023-04-10T14:21:20.771Z,24.23
2023-04-10T14:23:51.014Z,24.12
2023-04-10T14:26:23.576Z,24.05
2023-04-10T14:28:53.710Z,23.58
2023-04-10T14:31:23.874Z,23.75
2023-04-10T14:33:54.043Z,24.62
2023-04-10T14:36:24.401Z,24.40
2023-04-10T14:38:54.660Z,23.77
2023-04-10T14:41:28.938Z,24.03
2023-04-10T14:43:59.505Z,24.03
2023-04-10T14:46:29.838Z,24.27
2023-04-10T14:49:00.048Z,23.78
2023-04-10T14:51:30.074Z,23.60
2023-04-10T14:54:00.417Z,23.75
2023-04-10T14:56:33.479Z,23.49
2023-04-10T14:59:03.784Z,23.32
2023-04-10T15:01:33.817Z,23.72
2023-04-10T15:04:07.798Z,23.92
2023-04-10T15:06:37.886Z,24.21
2023-04-10T15:09:08.158Z,24.48
2023-04-10T15:11:40.778Z,25.42
2023-04-10T15:14:12.329Z,24.71
2023-04-10T15:16:42.716Z,24.54
2023-04-10T15:19:12.914Z,24.41
2023-04-10T15:21:42.889Z,23.25
2023-04-10T15:24:13.049Z,22.93
2023-04-10T15:26:48.115Z,22.91
2023-04-10T15:29:18.250Z,22.75
2023-04-10T15:31:48.299Z,22.03
2023-04-10T15:34:20.176Z,21.83
2023-04-10T15:36:50.292Z,21.68
2023-04-10T15:39:20.454Z,21.75
2023-04-10T15:41:53.559Z,21.27
2023-04-10T15:44:23.890Z,21.63
2023-04-10T15:46:56.726Z,21.16
2023-04-10T15:49:37.244Z,20.87
2023-04-10T15:52:11.838Z,21.13
2023-04-10T15:54:47.277Z,21.05
2023-04-10T15:57:20.108Z,21.05
2023-04-10T15:59:50.232Z,20.66
2023-04-10T16:02:20.476Z,20.42
2023-04-10T16:04:51.298Z,20.45
2023-04-10T16:07:21.339Z,20.37
2023-04-10T16:09:53.022Z,20.21
2023-04-10T16:12:25.807Z,20.12
2023-04-10T16:14:55.889Z,19.96
2023-04-10T16:17:25.933Z,19.89
2023-04-10T16:19:58.170Z,19.83
2023-04-10T16:22:28.271Z,19.70
2023-04-10T16:24:59.895Z,19.39
2023-04-10T16:27:32.918Z,19.27
2023-04-10T16:30:06.924Z,19.23
2023-04-10T16:32:37.364Z,19.05
2023-04-10T16:35:09.628Z,19.00
2023-04-10T16:37:40.394Z,18.96
2023-04-10T16:40:12.759Z,19.01
2023-04-10T16:42:46.188Z,18.99
2023-04-10T16:45:16.326Z,19.03
2023-04-10T16:47:46.878Z,18.98
2023-04-10T16:50:16.975Z,18.88
2023-04-10T16:52:46.938Z,18.66
2023-04-10T16:55:17.391Z,18.54
2023-04-10T16:57:50.868Z,18.46
2023-04-10T17:00:22.818Z,18.40
2023-04-10T17:02:52.878Z,18.28
2023-04-10T17:05:23.221Z,18.11
2023-04-10T17:07:54.575Z,17.88
2023-04-10T17:10:24.783Z,17.64
2023-04-10T17:13:06.648Z,17.43
2023-04-10T17:15:38.816Z,17.17
2023-04-10T17:18:12.095Z,17.03
2023-04-10T17:20:44.248Z,16.75
2023-04-10T17:23:15.424Z,16.56
2023-04-10T17:25:45.906Z,16.35
2023-04-10T17:28:18.708Z,16.23
2023-04-10T17:30:48.814Z,16.13
2023-04-10T17:33:19.148Z,16.04
2023-04-10T17:35:50.777Z,15.82
2023-04-10T17:38:21.259Z,15.69
2023-04-10T17:40:51.341Z,15.67
2023-04-10T17:43:24.746Z,15.61
2023-04-10T17:45:56.742Z,15.59
2023-04-10T17:48:27.485Z,15.38
2023-04-10T17:51:08.092Z,15.34
2023-04-10T17:53:39.464Z,15.32
2023-04-10T17:56:10.997Z,15.20
2023-04-10T17:58:44.762Z,14.98
2023-04-10T18:01:14.948Z,14.92
2023-04-10T18:03:46.210Z,14.85
2023-04-10T18:06:16.672Z,14.81
2023-04-10T18:08:46.793Z,14.75
2023-04-10T18:11:16.879Z,14.65
2023-04-10T18:13:50.359Z,14.56
2023-04-10T18:16:20.776Z,14.52
2023-04-10T18:18:50.785Z,14.44
2023-04-10T18:21:20.920Z,14.31
2023-04-10T18:23:51.123Z,14.32
2023-04-10T18:26:21.445Z,14.26
2023-04-10T18:28:54.701Z,14.16
2023-04-10T18:31:25.077Z,14.19
2023-04-10T18:34:06.423Z,14.16
2023-04-10T18:36:38.262Z,13.97
2023-04-10T18:39:08.358Z,13.93
2023-04-10T18:41:39.224Z,13.90
2023-04-10T18:44:12.303Z,13.81
2023-04-10T18:46:48.618Z,13.89
2023-04-10T18:49:23.908Z,13.87
2023-04-10T18:51:53.994Z,13.84
2023-04-10T18:54:24.332Z,13.81
2023-04-10T18:56:54.529Z,13.76
2023-04-10T18:59:27.548Z,13.69
2023-04-10T19:01:58.375Z,13.69
2023-04-10T19:04:29.230Z,13.68
2023-04-10T19:06:59.616Z,13.66
2023-04-10T19:09:29.661Z,13.62
2023-04-10T19:12:00.041Z,13.63
2023-04-10T19:14:33.256Z,13.56
2023-04-10T19:17:06.387Z,13.63
2023-04-10T19:19:36.809Z,13.64
2023-04-10T19:22:07.013Z,13.55
2023-04-10T19:24:37.194Z,13.55
2023-04-10T19:27:07.641Z,13.56
2023-04-10T19:29:40.619Z,13.63
2023-04-10T19:32:13.564Z,13.64
2023-04-10T19:34:43.786Z,13.61
2023-04-10T19:37:13.894Z,13.59
2023-04-10T19:39:44.115Z,13.56
2023-04-10T19:42:14.235Z,13.54
2023-04-10T19:44:47.603Z,13.59
2023-04-10T19:47:18.312Z,13.55
2023-04-10T19:49:48.596Z,13.53
2023-04-10T19:52:18.966Z,13.52
2023-04-10T19:54:49.157Z,13.43
2023-04-10T19:57:19.205Z,13.46
2023-04-10T19:59:51.853Z,13.41
2023-04-10T20:02:22.974Z,13.32
2023-04-10T20:04:53.408Z,13.33
2023-04-10T20:07:23.562Z,13.40
2023-04-10T20:09:53.872Z,13.34
2023-04-10T20:12:24.456Z,13.27
2023-04-10T20:14:57.525Z,13.27
2023-04-10T20:17:28.582Z,13.22
2023-04-10T20:19:59.066Z,13.24
2023-04-10T20:22:29.548Z,13.15
2023-04-10T20:25:00.195Z,13.14
2023-04-10T20:27:30.271Z,13.12
2023-04-10T20:30:03.550Z,13.03
2023-04-10T20:32:34.137Z,12.99
2023-04-10T20:35:04.389Z,13.05
2023-04-10T20:37:34.482Z,13.07
2023-04-10T20:40:04.629Z,13.02
2023-04-10T20:42:34.705Z,13.04
2023-04-10T20:45:08.327Z,13.01
2023-04-10T20:47:39.633Z,13.02
2023-04-10T20:50:12.772Z,13.10
2023-04-10T20:52:43.326Z,13.22
2023-04-10T20:55:13.770Z,13.25
2023-04-10T20:57:43.796Z,13.27
2023-04-10T21:00:19.076Z,13.28
2023-04-10T21:02:50.253Z,13.27
2023-04-10T21:05:20.553Z,13.22
2023-04-10T21:07:51.059Z,13.22
2023-04-10T21:10:21.526Z,13.28
2023-04-10T21:12:51.775Z,13.24
2023-04-10T21:15:25.480Z,13.27
2023-04-10T21:17:55.594Z,13.29
2023-04-10T21:20:26.381Z,13.27
2023-04-10T21:22:56.995Z,13.32
2023-04-10T21:25:27.440Z,13.31
2023-04-10T21:27:57.450Z,13.30
2023-04-10T21:30:30.412Z,13.29
2023-04-10T21:33:00.702Z,13.29
2023-04-10T21:35:31.657Z,13.27
2023-04-10T21:38:02.849Z,13.28
2023-04-10T21:40:34.636Z,13.23
2023-04-10T21:43:04.949Z,13.18
2023-04-10T21:45:37.939Z,13.16
2023-04-10T21:48:08.647Z,13.18
2023-04-10T21:50:38.796Z,13.17
2023-04-10T21:53:09.101Z,13.23
2023-04-10T21:55:39.234Z,13.15
2023-04-10T21:58:09.293Z,13.14
2023-04-10T22:00:42.851Z,13.17
2023-04-10T22:03:13.345Z,13.25
2023-04-10T22:05:44.140Z,13.28
2023-04-10T22:08:14.303Z,13.34
2023-04-10T22:10:46.037Z,13.43
2023-04-10T22:13:29.736Z,13.49
2023-04-10T22:16:05.894Z,13.50
2023-04-10T22:18:36.201Z,13.49
2023-04-10T22:21:08.469Z,13.53
2023-04-10T22:23:38.559Z,13.47
2023-04-10T22:26:09.842Z,13.49
2023-04-10T22:28:39.982Z,13.47
2023-04-10T22:31:18.001Z,13.46
2023-04-10T22:33:49.693Z,13.45
2023-04-10T22:36:19.882Z,13.43
2023-04-10T22:38:50.293Z,13.46
2023-04-10T22:41:20.752Z,13.49
2023-04-10T22:43:50.936Z,13.42
2023-04-10T22:46:23.943Z,13.42
2023-04-10T22:48:54.922Z,13.35
2023-04-10T22:51:25.163Z,13.33
2023-04-10T22:53:57.132Z,13.23
2023-04-10T22:56:29.668Z,13.16
2023-04-10T22:58:59.654Z,12.98
2023-04-10T23:01:32.675Z,12.79
2023-04-10T23:04:03.282Z,12.69
2023-04-10T23:06:33.464Z,12.71
2023-04-10T23:09:03.856Z,12.66
2023-04-10T23:11:34.285Z,12.65
2023-04-10T23:14:04.826Z,12.61
2023-04-10T23:16:38.207Z,12.47
2023-04-10T23:19:08.312Z,12.59
2023-04-10T23:21:38.413Z,12.63
2023-04-10T23:24:09.089Z,12.71
2023-04-10T23:26:39.138Z,12.80
2023-04-10T23:29:11.529Z,12.89
2023-04-10T23:31:45.586Z,12.84
2023-04-10T23:34:15.639Z,12.91
2023-04-10T23:36:45.940Z,13.00
2023-04-10T23:39:16.513Z,13.02
2023-04-10T23:41:46.926Z,13.09
2023-04-10T23:44:16.949Z,13.08
2023-04-10T23:46:49.620Z,13.10
2023-04-10T23:49:19.984Z,13.15
2023-04-10T23:51:50.077Z,13.18
2023-04-10T23:54:20.195Z,13.16
2023-04-10T23:56:50.141Z,13.25
2023-04-10T23:59:20.403Z,13.32
